Time;durP1;ratioP1;P1;durP2;ratioP2;P2;SDS_P1;SDS_P2;PMS_P1;PMS_P2;Temp;Humidity;BMP_temperature;BMP_pressure;BME280_temperature;BME280_humidity;BME280_pressure;Samples;Min_cycle;Max_cycle;Signal;HPM_P1;HPM_P2
2023/05/19 00:00:43;;;;;;;;;;;;;;;10.40;62.18;102632.19;5074843;28;19917;-60
2023/05/19 00:03:08;;;;;;;;;;;;;;;10.35;62.14;102629.91;5072334;28;20305;-59
2023/05/19 00:05:35;;;;;;;;;;;;;;;10.34;62.08;102630.03;5080464;28;20403;-60
2023/05/19 00:08:01;;;;;;;;;;;;;;;10.32;62.12;102629.31;5073729;28;20393;-60
2023/05/19 00:10:30;;;;;;;;;;;;;;;10.27;62.29;102620.91;5080015;28;19916;-60
2023/05/19 00:12:55;;;;;;;;;;;;;;;10.22;62.36;102623.94;5084239;28;20046;-60
2023/05/19 00:15:21;;;;;;;;;;;;;;;10.17;62.72;102623.44;5078625;28;20006;-60
2023/05/19 00:17:46;;;;;;;;;;;;;;;10.14;62.49;102624.53;5076478;28;20027;-60
2023/05/19 00:20:11;;;;;;;;;;;;;;;10.12;62.99;102615.84;5084822;28;20275;-60
2023/05/19 00:22:36;;;;;;;;;;;;;;;10.09;63.15;102615.22;5070549;28;20189;-60
2023/05/19 00:25:02;;;;;;;;;;;;;;;10.04;63.47;102618.25;5068341;28;19952;-60
2023/05/19 00:27:28;;;;;;;;;;;;;;;10.02;63.45;102612.22;5073411;28;20297;-61
2023/05/19 00:29:53;;;;;;;;;;;;;;;9.99;63.83;102603.66;5073472;28;20411;-60
2023/05/19 00:32:18;;;;;;;;;;;;;;;9.98;64.25;102600.16;5076413;28;19919;-60
2023/05/19 00:34:43;;;;;;;;;;;;;;;9.98;64.32;102597.50;5072685;28;19952;-60
2023/05/19 00:37:08;;;;;;;;;;;;;;;9.97;64.59;102598.47;5075631;28;19921;-60
2023/05/19 00:39:33;;;;;;;;;;;;;;;9.96;64.91;102588.84;5074165;28;19927;-60
2023/05/19 00:41:59;;;;;;;;;;;;;;;9.97;64.88;102589.69;5072411;28;20068;-60
2023/05/19 00:44:24;;;;;;;;;;;;;;;9.97;65.22;102592.34;5078229;28;19919;-60
2023/05/19 00:46:49;;;;;;;;;;;;;;;9.94;65.45;102588.97;5076848;28;19931;-60
2023/05/19 00:49:15;;;;;;;;;;;;;;;9.93;65.54;102591.75;5077567;28;19916;-60
2023/05/19 00:51:40;;;;;;;;;;;;;;;9.93;65.93;102589.09;5070471;28;19999;-60
2023/05/19 00:54:05;;;;;;;;;;;;;;;9.92;65.86;102590.06;5076558;28;20011;-60
2023/05/19 00:56:30;;;;;;;;;;;;;;;9.92;66.06;102587.41;5071586;28;19999;-60
2023/05/19 00:58:57;;;;;;;;;;;;;;;9.91;66.06;102593.69;5074095;28;19973;-61
2023/05/19 01:01:22;;;;;;;;;;;;;;;9.89;66.22;102590.31;5075596;28;19978;-61
2023/05/19 01:03:47;;;;;;;;;;;;;;;9.88;66.39;102593.94;5074990;28;19916;-61
2023/05/19 01:06:13;;;;;;;;;;;;;;;9.87;66.25;102597.53;5070890;28;19951;-61
2023/05/19 01:08:39;;;;;;;;;;;;;;;9.84;66.20;102593.34;5079045;28;19916;-61
2023/05/19 01:11:05;;;;;;;;;;;;;;;9.84;66.57;102598.63;5072290;28;19924;-61
2023/05/19 01:13:31;;;;;;;;;;;;;;;9.83;66.47;102585.47;5075578;28;19920;-61
2023/05/19 01:16:13;;;;;;;;;;;;;;;9.82;66.68;102594.38;5070129;28;20271;-60
2023/05/19 01:18:43;;;;;;;;;;;;;;;9.81;66.50;102593.53;5073603;28;19936;-60
2023/05/19 01:21:29;;;;;;;;;;;;;;;9.80;66.56;102591.88;5070401;28;19920;-59
2023/05/19 01:24:04;;;;;;;;;;;;;;;9.77;66.63;102589.47;5057631;28;19920;-60
2023/05/19 01:26:48;;;;;;;;;;;;;;;9.77;66.55;102594.75;5076191;28;20011;-60
2023/05/19 01:29:28;;;;;;;;;;;;;;;9.75;66.85;102602.00;5073977;28;19913;-59
2023/05/19 01:31:54;;;;;;;;;;;;;;;9.73;66.88;102601.28;5075009;28;20003;-60
2023/05/19 01:34:20;;;;;;;;;;;;;;;9.72;67.06;102596.09;5073853;28;19920;-59
2023/05/19 01:36:47;;;;;;;;;;;;;;;9.70;67.21;102587.41;5075861;28;19960;-59
2023/05/19 01:39:13;;;;;;;;;;;;;;;9.68;67.20;102586.69;5072295;28;20431;-60
2023/05/19 01:41:40;;;;;;;;;;;;;;;9.68;67.15;102592.84;5071882;28;20006;-59
2023/05/19 01:44:06;;;;;;;;;;;;;;;9.66;67.32;102589.47;5081663;28;19916;-60
2023/05/19 01:46:31;;;;;;;;;;;;;;;9.63;67.45;102592.38;5083098;28;19916;-60
2023/05/19 01:48:56;;;;;;;;;;;;;;;9.62;67.98;102582.72;5079226;28;19920;-60
2023/05/19 01:51:21;;;;;;;;;;;;;;;9.60;68.36;102577.56;5083506;28;19921;-60
2023/05/19 01:53:46;;;;;;;;;;;;;;;9.59;68.52;102581.16;5082308;28;19917;-60
2023/05/19 01:56:15;;;;;;;;;;;;;;;9.57;68.82;102576.94;5076565;28;20364;-60
2023/05/19 01:58:46;;;;;;;;;;;;;;;9.53;68.94;102567.53;5074037;28;20369;-60
2023/05/19 02:01:13;;;;;;;;;;;;;;;9.50;68.89;102573.91;5078182;28;19913;-60
2023/05/19 02:03:57;;;;;;;;;;;;;;;9.46;69.32;102572.47;5073484;28;19916;-60
2023/05/19 02:06:45;;;;;;;;;;;;;;;9.45;69.71;102569.94;5075770;28;19927;-60
2023/05/19 02:09:24;;;;;;;;;;;;;;;9.42;69.90;102570.19;5072860;28;20312;-61
2023/05/19 02:12:05;;;;;;;;;;;;;;;9.39;70.14;102565.13;5092608;28;19916;-58
2023/05/19 02:14:36;;;;;;;;;;;;;;;9.36;70.49;102576.81;5080379;28;19916;-59
2023/05/19 02:17:03;;;;;;;;;;;;;;;9.33;70.84;102577.06;5076974;28;20389;-60
2023/05/19 02:19:31;;;;;;;;;;;;;;;9.33;71.02;102574.41;5073060;28;20007;-59
2023/05/19 02:21:56;;;;;;;;;;;;;;;9.29;70.97;102571.16;5079725;28;20503;-59
2023/05/19 02:24:21;;;;;;;;;;;;;;;9.27;70.84;102569.59;5071057;28;19916;-59
2023/05/19 02:26:47;;;;;;;;;;;;;;;9.26;70.83;102566.09;5072632;28;19964;-60
2023/05/19 02:29:12;;;;;;;;;;;;;;;9.25;70.80;102568.84;5072662;28;20381;-59
2023/05/19 02:31:37;;;;;;;;;;;;;;;9.23;70.76;102566.31;5072487;28;19916;-60
2023/05/19 02:34:03;;;;;;;;;;;;;;;9.22;70.95;102566.44;5071743;28;19919;-60
2023/05/19 02:36:29;;;;;;;;;;;;;;;9.22;70.56;102559.31;5076643;28;20451;-60
2023/05/19 02:38:55;;;;;;;;;;;;;;;9.20;70.77;102558.59;5074258;28;19920;-59
2023/05/19 02:41:21;;;;;;;;;;;;;;;9.19;70.88;102562.22;5072294;28;19966;-60
2023/05/19 02:43:46;;;;;;;;;;;;;;;9.19;71.09;102553.44;5074991;28;19964;-59
2023/05/19 02:46:11;;;;;;;;;;;;;;;9.18;70.91;102557.03;5072602;28;19916;-60
2023/05/19 02:48:36;;;;;;;;;;;;;;;9.16;71.32;102549.22;5072146;28;19965;-59
2023/05/19 02:51:01;;;;;;;;;;;;;;;9.15;71.42;102546.69;5076927;28;19916;-60
2023/05/19 02:53:26;;;;;;;;;;;;;;;9.13;71.50;102548.59;5071980;28;20019;-60
2023/05/19 02:55:52;;;;;;;;;;;;;;;9.10;71.92;102543.56;5073674;28;19919;-59
2023/05/19 02:58:19;;;;;;;;;;;;;;;9.09;72.16;102549.81;5071781;28;19920;-60
2023/05/19 03:00:44;;;;;;;;;;;;;;;9.06;72.44;102544.75;5075729;28;19913;-60
2023/05/19 03:03:09;;;;;;;;;;;;;;;9.01;72.33;102545.13;5072333;28;20497;-60
2023/05/19 03:05:35;;;;;;;;;;;;;;;9.00;72.21;102554.88;5071272;28;19928;-60
2023/05/19 03:08:00;;;;;;;;;;;;;;;8.97;72.33;102547.16;5079212;28;19923;-60
2023/05/19 03:10:25;;;;;;;;;;;;;;;8.96;72.17;102544.59;5073794;28;20445;-60
2023/05/19 03:12:51;;;;;;;;;;;;;;;8.93;72.30;102543.03;5089190;28;19920;-59
2023/05/19 03:15:17;;;;;;;;;;;;;;;8.91;71.97;102547.59;5072834;28;19924;-60
2023/05/19 03:17:42;;;;;;;;;;;;;;;8.90;72.00;102543.28;5071162;28;20301;-60
2023/05/19 03:20:09;;;;;;;;;;;;;;;8.89;72.19;102544.22;5074283;28;20582;-60
2023/05/19 03:22:34;;;;;;;;;;;;;;;8.89;71.98;102538.94;5078320;28;19916;-60
2023/05/19 03:24:59;;;;;;;;;;;;;;;8.90;72.18;102547.72;5079626;28;20369;-60
2023/05/19 03:27:25;;;;;;;;;;;;;;;8.86;72.21;102552.41;5083168;28;19916;-60
2023/05/19 03:29:51;;;;;;;;;;;;;;;8.84;72.23;102554.34;5071827;28;20432;-60
2023/05/19 03:32:16;;;;;;;;;;;;;;;8.83;72.54;102544.72;5077476;28;19984;-60
2023/05/19 03:34:41;;;;;;;;;;;;;;;8.82;72.50;102544.84;5075139;28;20588;-60
2023/05/19 03:37:09;;;;;;;;;;;;;;;8.81;72.59;102553.75;5076677;28;19923;-60
2023/05/19 03:39:34;;;;;;;;;;;;;;;8.79;73.15;102555.66;5078693;28;19917;-60
2023/05/19 03:41:59;;;;;;;;;;;;;;;8.75;72.59;102560.34;5081665;28;20385;-59
2023/05/19 03:44:25;;;;;;;;;;;;;;;8.75;73.08;102562.16;5088065;28;19920;-60
2023/05/19 03:46:50;;;;;;;;;;;;;;;8.73;73.07;102566.72;5084871;28;19920;-60
2023/05/19 03:49:15;;;;;;;;;;;;;;;8.73;73.29;102562.28;5075304;28;19923;-60
2023/05/19 03:51:40;;;;;;;;;;;;;;;8.73;73.50;102561.44;5077423;28;19927;-60
2023/05/19 03:54:05;;;;;;;;;;;;;;;8.71;73.58;102558.91;5079290;28;20293;-60
2023/05/19 03:56:31;;;;;;;;;;;;;;;8.70;73.70;102567.81;5077809;28;19949;-60
2023/05/19 03:58:56;;;;;;;;;;;;;;;8.68;73.87;102559.97;5077583;28;20294;-59
2023/05/19 04:01:21;;;;;;;;;;;;;;;8.68;73.91;102561.78;5081898;28;19925;-60
2023/05/19 04:03:47;;;;;;;;;;;;;;;8.67;73.95;102557.41;5081870;28;19977;-59
2023/05/19 04:06:12;;;;;;;;;;;;;;;8.66;74.16;102556.56;5083019;28;19935;-60
2023/05/19 04:08:38;;;;;;;;;;;;;;;8.65;74.68;102559.34;5071347;28;20011;-60
2023/05/19 04:11:03;;;;;;;;;;;;;;;8.62;74.47;102559.56;5075222;28;20385;-60
2023/05/19 04:13:28;;;;;;;;;;;;;;;8.62;74.79;102562.22;5073291;28;19916;-60
2023/05/19 04:15:53;;;;;;;;;;;;;;;8.62;74.69;102563.06;5068567;28;19916;-60
2023/05/19 04:18:18;;;;;;;;;;;;;;;8.63;74.43;102562.09;5070177;28;19989;-60
2023/05/19 04:20:44;;;;;;;;;;;;;;;8.63;74.71;102562.09;5072459;28;19913;-60
2023/05/19 04:23:09;;;;;;;;;;;;;;;8.63;74.84;102564.75;5076908;28;19936;-59
2023/05/19 04:25:35;;;;;;;;;;;;;;;8.64;75.06;102557.66;5076635;28;19919;-60
2023/05/19 04:28:01;;;;;;;;;;;;;;;8.64;75.31;102562.94;5070628;28;19920;-60
2023/05/19 04:30:27;;;;;;;;;;;;;;;8.64;75.50;102560.31;5071374;28;19917;-59
2023/05/19 04:32:52;;;;;;;;;;;;;;;8.64;75.57;102562.94;5070200;28;20382;-59
2023/05/19 04:35:18;;;;;;;;;;;;;;;8.65;75.80;102557.53;5071830;28;20401;-60
2023/05/19 04:37:44;;;;;;;;;;;;;;;8.66;76.19;102553.09;5069870;28;19917;-60
2023/05/19 04:40:11;;;;;;;;;;;;;;;8.66;76.35;102551.28;5070388;28;19921;-60
2023/05/19 04:42:40;;;;;;;;;;;;;;;8.68;76.42;102561.78;5069608;28;19920;-60
2023/05/19 04:45:07;;;;;;;;;;;;;;;8.70;76.73;102562.50;5074539;28;19921;-60
2023/05/19 04:47:35;;;;;;;;;;;;;;;8.72;76.92;102568.53;5077463;28;19998;-58
2023/05/19 04:50:01;;;;;;;;;;;;;;;8.73;76.76;102564.09;5070450;28;19927;-59
2023/05/19 04:52:26;;;;;;;;;;;;;;;8.75;76.82;102570.94;5077565;28;19917;-59
2023/05/19 04:54:51;;;;;;;;;;;;;;;8.78;76.94;102567.22;5085345;28;20374;-59
2023/05/19 04:57:16;;;;;;;;;;;;;;;8.83;77.05;102570.34;5074610;28;20328;-59
2023/05/19 04:59:42;;;;;;;;;;;;;;;8.87;77.09;102571.81;5081249;28;19928;-59
2023/05/19 05:02:07;;;;;;;;;;;;;;;8.92;77.50;102570.50;5079861;28;19916;-59
2023/05/19 05:04:33;;;;;;;;;;;;;;;8.97;77.68;102565.72;5075091;28;20436;-59
2023/05/19 05:06:58;;;;;;;;;;;;;;;9.04;77.79;102570.53;5083455;28;19920;-60
2023/05/19 05:09:23;;;;;;;;;;;;;;;9.11;77.75;102569.09;5080919;28;19959;-60
2023/05/19 05:11:48;;;;;;;;;;;;;;;9.17;78.00;102573.91;5096284;28;19919;-60
2023/05/19 05:14:14;;;;;;;;;;;;;;;9.26;78.00;102581.16;5077883;28;19924;-60
2023/05/19 05:16:39;;;;;;;;;;;;;;;9.31;78.81;102571.88;5076639;28;19917;-60
2023/05/19 05:19:04;;;;;;;;;;;;;;;9.39;78.65;102575.75;5074706;28;20301;-59
2023/05/19 05:21:30;;;;;;;;;;;;;;;9.46;78.75;102571.63;5079561;28;19920;-59
2023/05/19 05:23:56;;;;;;;;;;;;;;;9.51;78.72;102580.91;5077040;28;19935;-60
2023/05/19 05:26:22;;;;;;;;;;;;;;;9.57;79.13;102580.44;5074913;28;19917;-59
2023/05/19 05:28:47;;;;;;;;;;;;;;;9.65;79.03;102582.50;5086500;28;20014;-60
2023/05/19 05:31:12;;;;;;;;;;;;;;;9.72;78.73;102583.69;5083391;28;19923;-60
2023/05/19 05:33:37;;;;;;;;;;;;;;;9.78;78.87;102582.34;5088385;28;19956;-59
2023/05/19 05:36:03;;;;;;;;;;;;;;;9.83;79.00;102583.69;5088047;28;19916;-60
2023/05/19 05:38:28;;;;;;;;;;;;;;;9.91;79.31;102585.72;5078639;28;19931;-60
2023/05/19 05:40:54;;;;;;;;;;;;;;;10.01;79.14;102581.34;5085720;28;20770;-60
2023/05/19 05:43:19;;;;;;;;;;;;;;;10.10;79.07;102583.25;5082117;28;19916;-60
2023/05/19 05:45:44;;;;;;;;;;;;;;;10.17;79.13;102575.66;5077506;28;19917;-60
2023/05/19 05:48:09;;;;;;;;;;;;;;;10.20;78.97;102578.03;5085817;28;19920;-60
2023/05/19 05:50:35;;;;;;;;;;;;;;;10.29;79.01;102579.13;5083291;28;20558;-60
2023/05/19 05:53:00;;;;;;;;;;;;;;;10.36;79.07;102586.44;5091212;28;19943;-59
2023/05/19 05:55:26;;;;;;;;;;;;;;;10.44;78.63;102580.53;5077822;28;19924;-60
2023/05/19 05:57:51;;;;;;;;;;;;;;;10.50;78.66;102585.34;5076330;28;19924;-60
2023/05/19 06:00:16;;;;;;;;;;;;;;;10.57;78.49;102581.19;5081968;28;19969;-59
2023/05/19 06:02:43;;;;;;;;;;;;;;;10.65;77.91;102584.03;5083801;28;19927;-60
2023/05/19 06:05:11;;;;;;;;;;;;;;;10.73;77.94;102583.41;5085195;28;20313;-60
2023/05/19 06:07:36;;;;;;;;;;;;;;;10.79;77.54;102586.41;5083942;28;20293;-59
2023/05/19 06:10:01;;;;;;;;;;;;;;;10.85;77.58;102579.72;5081075;28;20432;-59
2023/05/19 06:12:26;;;;;;;;;;;;;;;10.92;77.09;102580.88;5091408;28;19916;-60
2023/05/19 06:14:52;;;;;;;;;;;;;;;10.98;76.82;102579.50;5082621;28;19916;-60
2023/05/19 06:17:17;;;;;;;;;;;;;;;11.03;76.39;102578.16;5075694;28;19993;-60
2023/05/19 06:19:42;;;;;;;;;;;;;;;11.10;76.41;102575.81;5077997;28;20016;-58
2023/05/19 06:22:07;;;;;;;;;;;;;;;11.14;76.36;102582.56;5077976;28;20011;-59
2023/05/19 06:24:32;;;;;;;;;;;;;;;11.19;75.96;102577.69;5084298;28;20296;-60
2023/05/19 06:26:58;;;;;;;;;;;;;;;11.22;75.56;102584.53;5084230;28;20036;-60
2023/05/19 06:29:23;;;;;;;;;;;;;;;11.29;75.62;102583.91;5089913;28;19911;-60
2023/05/19 06:31:48;;;;;;;;;;;;;;;11.35;75.19;102586.03;5080546;28;19912;-59
2023/05/19 06:34:16;;;;;;;;;;;;;;;11.40;74.95;102590.94;5077677;28;20003;-60
2023/05/19 06:36:41;;;;;;;;;;;;;;;11.48;74.99;102586.63;5073498;28;20413;-61
2023/05/19 06:39:06;;;;;;;;;;;;;;;11.57;74.98;102589.50;5086725;28;19974;-60
2023/05/19 06:41:31;;;;;;;;;;;;;;;11.65;74.44;102589.66;5083590;28;20016;-61
2023/05/19 06:43:57;;;;;;;;;;;;;;;11.66;73.75;102586.84;5087478;28;19915;-61
2023/05/19 06:46:22;;;;;;;;;;;;;;;11.67;73.26;102590.34;5083006;28;19954;-61
2023/05/19 06:48:47;;;;;;;;;;;;;;;11.74;72.92;102588.84;5083341;28;20509;-60
2023/05/19 06:51:14;;;;;;;;;;;;;;;11.79;72.80;102583.97;5071697;28;19922;-60
2023/05/19 06:53:39;;;;;;;;;;;;;;;11.85;73.34;102586.09;5078485;28;19970;-60
2023/05/19 06:56:05;;;;;;;;;;;;;;;11.92;73.02;102579.25;5072210;28;19916;-60
2023/05/19 06:58:30;;;;;;;;;;;;;;;11.98;72.95;102581.38;5076780;28;20400;-60
2023/05/19 07:00:55;;;;;;;;;;;;;;;12.05;72.57;102584.31;5087294;28;20391;-59
2023/05/19 07:03:20;;;;;;;;;;;;;;;12.14;72.41;102572.00;5072626;28;19946;-60
2023/05/19 07:05:46;;;;;;;;;;;;;;;12.19;72.14;102583.94;5075178;28;19923;-60
2023/05/19 07:08:11;;;;;;;;;;;;;;;12.24;71.92;102587.03;5080218;28;19920;-60
2023/05/19 07:10:36;;;;;;;;;;;;;;;12.31;71.43;102581.97;5081612;28;20396;-59
2023/05/19 07:13:01;;;;;;;;;;;;;;;12.36;71.55;102585.06;5087610;28;19924;-59
2023/05/19 07:15:27;;;;;;;;;;;;;;;12.44;71.43;102587.88;5082160;28;19920;-59
2023/05/19 07:17:52;;;;;;;;;;;;;;;12.50;71.15;102586.47;5082530;28;19966;-59
2023/05/19 07:20:17;;;;;;;;;;;;;;;12.55;70.86;102587.72;5071816;28;19939;-58
2023/05/19 07:22:42;;;;;;;;;;;;;;;12.64;71.23;102586.88;5079354;28;19916;-59
2023/05/19 07:25:08;;;;;;;;;;;;;;;12.72;70.88;102583.50;5080852;28;20400;-60
2023/05/19 07:27:33;;;;;;;;;;;;;;;12.79;70.94;102584.63;5087915;28;19912;-60
2023/05/19 07:29:58;;;;;;;;;;;;;;;12.87;70.63;102583.91;5078105;28;19916;-60
2023/05/19 07:32:23;;;;;;;;;;;;;;;12.92;70.27;102587.00;5081673;28;19916;-59
2023/05/19 07:34:49;;;;;;;;;;;;;;;13.00;70.24;102581.78;5072868;28;19946;-60
2023/05/19 07:37:15;;;;;;;;;;;;;;;13.07;69.64;102582.06;5080540;28;19916;-59
2023/05/19 07:39:40;;;;;;;;;;;;;;;13.15;69.84;102583.00;5074692;28;19927;-59
2023/05/19 07:42:05;;;;;;;;;;;;;;;13.22;69.22;102580.63;5082390;28;20011;-59
2023/05/19 07:44:30;;;;;;;;;;;;;;;13.25;68.70;102580.34;5079262;28;20085;-60
2023/05/19 07:46:56;;;;;;;;;;;;;;;13.29;67.97;102574.56;5085446;28;19920;-59
2023/05/19 07:49:21;;;;;;;;;;;;;;;13.38;68.21;102575.53;5077668;28;19920;-59
2023/05/19 07:51:46;;;;;;;;;;;;;;;13.51;68.64;102575.19;5083460;28;20547;-59
2023/05/19 07:54:11;;;;;;;;;;;;;;;13.61;68.57;102579.50;5075273;28;19976;-60
2023/05/19 07:56:37;;;;;;;;;;;;;;;13.70;68.33;102575.09;5082545;28;20337;-59
2023/05/19 07:59:02;;;;;;;;;;;;;;;13.80;67.75;102573.22;5077709;28;19936;-59
2023/05/19 08:01:28;;;;;;;;;;;;;;;13.90;67.49;102570.50;5080153;28;19916;-59
2023/05/19 08:03:53;;;;;;;;;;;;;;;13.98;67.10;102570.59;5076961;28;19960;-58
2023/05/19 08:06:18;;;;;;;;;;;;;;;14.08;66.96;102567.84;5080699;28;20369;-59
2023/05/19 08:08:45;;;;;;;;;;;;;;;14.15;65.63;102567.06;5085872;28;19926;-59
2023/05/19 08:11:10;;;;;;;;;;;;;;;14.24;65.51;102571.53;5085805;28;20003;-59
2023/05/19 08:13:35;;;;;;;;;;;;;;;14.32;65.05;102562.75;5080685;28;20016;-59
2023/05/19 08:16:01;;;;;;;;;;;;;;;14.37;63.88;102563.13;5077680;28;19924;-60
2023/05/19 08:18:26;;;;;;;;;;;;;;;14.51;64.28;102562.63;5074998;28;20412;-60
2023/05/19 08:20:51;;;;;;;;;;;;;;;14.59;63.74;102553.81;5086049;28;19935;-60
2023/05/19 08:23:17;;;;;;;;;;;;;;;14.66;63.26;102562.06;5083920;28;20353;-60
2023/05/19 08:25:42;;;;;;;;;;;;;;;14.72;63.55;102562.25;5083298;28;19916;-60
2023/05/19 08:28:07;;;;;;;;;;;;;;;14.75;62.53;102556.63;5082454;28;19912;-60
2023/05/19 08:30:33;;;;;;;;;;;;;;;14.77;61.85;102560.00;5086432;28;19916;-60
2023/05/19 08:32:58;;;;;;;;;;;;;;;14.75;61.08;102547.78;5082925;28;19916;-60
2023/05/19 08:35:23;;;;;;;;;;;;;;;14.76;60.85;102546.78;5080525;28;20068;-60
2023/05/19 08:37:48;;;;;;;;;;;;;;;14.81;60.81;102547.13;5077291;28;20162;-60
2023/05/19 08:40:15;;;;;;;;;;;;;;;14.82;60.42;102541.63;5077172;28;19924;-60
2023/05/19 08:42:40;;;;;;;;;;;;;;;14.81;59.99;102536.44;5071395;28;19920;-60
2023/05/19 08:45:06;;;;;;;;;;;;;;;14.85;60.08;102532.44;5072746;28;19928;-60
2023/05/19 08:47:31;;;;;;;;;;;;;;;14.89;60.02;102533.81;5080464;28;19975;-60
2023/05/19 08:50:01;;;;;;;;;;;;;;;14.94;59.74;102531.50;5081713;28;20466;-60
2023/05/19 08:52:31;;;;;;;;;;;;;;;15.01;59.61;102529.03;5080760;28;19923;-60
2023/05/19 08:55:03;;;;;;;;;;;;;;;15.07;59.87;102526.56;5070359;28;20297;-60
2023/05/19 08:57:30;;;;;;;;;;;;;;;15.14;59.48;102524.09;5074592;28;19923;-59
2023/05/19 08:59:56;;;;;;;;;;;;;;;15.17;58.56;102518.41;5078245;28;19920;-59
2023/05/19 09:02:21;;;;;;;;;;;;;;;15.22;58.68;102520.59;5073835;28;19924;-60
2023/05/19 09:04:47;;;;;;;;;;;;;;;15.27;57.75;102520.97;5073804;28;20012;-60
2023/05/19 09:07:13;;;;;;;;;;;;;;;15.30;57.24;102521.47;5082021;28;19916;-59
2023/05/19 09:09:42;;;;;;;;;;;;;;;15.35;57.19;102515.66;5071831;28;19916;-59
2023/05/19 09:12:07;;;;;;;;;;;;;;;15.38;57.24;102510.81;5074974;28;19956;-59
2023/05/19 09:14:33;;;;;;;;;;;;;;;15.46;56.93;102512.69;5074140;28;19999;-59
2023/05/19 09:16:58;;;;;;;;;;;;;;;15.58;55.92;102508.75;5077468;28;20019;-59
2023/05/19 09:19:27;;;;;;;;;;;;;;;15.74;55.17;102511.47;5078523;28;20000;-59
2023/05/19 09:21:59;;;;;;;;;;;;;;;15.82;54.27;102499.94;5072745;28;19912;-59
2023/05/19 09:24:25;;;;;;;;;;;;;;;15.97;54.85;102506.34;5077103;28;19916;-59
2023/05/19 09:26:50;;;;;;;;;;;;;;;16.17;54.53;102503.31;5077853;28;19961;-59
2023/05/19 09:29:16;;;;;;;;;;;;;;;16.31;53.45;102500.81;5069978;28;19913;-60
2023/05/19 09:31:50;;;;;;;;;;;;;;;16.39;52.90;102495.44;5075416;28;19920;-59
2023/05/19 09:34:15;;;;;;;;;;;;;;;16.54;52.66;102492.09;5070100;28;20555;-59
2023/05/19 09:36:41;;;;;;;;;;;;;;;16.69;52.44;102482.38;5077623;28;19917;-59
2023/05/19 09:39:15;;;;;;;;;;;;;;;16.92;52.43;102486.03;5070559;28;19924;-60
2023/05/19 09:41:41;;;;;;;;;;;;;;;17.08;51.89;102487.84;5080287;28;20020;-59
2023/05/19 09:44:07;;;;;;;;;;;;;;;17.17;51.93;102492.16;5081338;28;20007;-59
2023/05/19 09:46:34;;;;;;;;;;;;;;;17.18;51.83;102493.00;5074215;28;19912;-60
2023/05/19 09:49:06;;;;;;;;;;;;;;;17.33;51.50;102501.97;5074653;28;19927;-59
2023/05/19 09:51:33;;;;;;;;;;;;;;;17.51;50.02;102494.50;5084113;28;19916;-59
2023/05/19 09:53:59;;;;;;;;;;;;;;;17.62;49.38;102502.16;5076904;28;19923;-59
2023/05/19 09:56:30;;;;;;;;;;;;;;;17.69;49.66;102502.34;5073483;28;20253;-60
2023/05/19 09:58:55;;;;;;;;;;;;;;;17.77;50.08;102486.16;5074840;28;19924;-59
2023/05/19 10:01:21;;;;;;;;;;;;;;;17.84;48.25;102486.28;5083791;28;19958;-60
2023/05/19 10:03:47;;;;;;;;;;;;;;;18.07;48.18;102489.81;5078019;28;19921;-60
2023/05/19 10:06:14;;;;;;;;;;;;;;;18.27;48.23;102487.50;5081580;28;20411;-60
2023/05/19 10:08:41;;;;;;;;;;;;;;;18.37;46.95;102484.53;5071612;28;19923;-60
2023/05/19 10:11:07;;;;;;;;;;;;;;;18.19;46.83;102480.31;5075944;28;19920;-60
2023/05/19 10:13:34;;;;;;;;;;;;;;;18.18;46.46;102481.31;5086570;28;19924;-59
2023/05/19 10:15:59;;;;;;;;;;;;;;;18.23;46.19;102481.63;5080985;28;19984;-59
2023/05/19 10:18:25;;;;;;;;;;;;;;;18.32;45.87;102481.56;5078646;28;20320;-60
2023/05/19 10:20:50;;;;;;;;;;;;;;;18.42;46.14;102485.66;5071179;28;19917;-59
2023/05/19 10:23:16;;;;;;;;;;;;;;;18.55;45.14;102493.97;5074322;28;20370;-60
2023/05/19 10:25:41;;;;;;;;;;;;;;;18.79;44.60;102484.84;5071402;28;19926;-60
2023/05/19 10:28:09;;;;;;;;;;;;;;;18.92;44.61;102478.78;5079003;28;19912;-60
2023/05/19 10:30:39;;;;;;;;;;;;;;;19.01;45.11;102477.66;5075008;28;19925;-59
2023/05/19 10:33:06;;;;;;;;;;;;;;;19.04;44.15;102476.47;5074323;28;19923;-59
2023/05/19 10:35:50;;;;;;;;;;;;;;;19.09;43.29;102477.59;5075782;28;19924;-59
2023/05/19 10:38:26;;;;;;;;;;;;;;;19.05;43.14;102473.56;5083302;28;20373;-59
2023/05/19 10:40:54;;;;;;;;;;;;;;;19.14;42.28;102464.41;5082261;28;20011;-59
2023/05/19 10:43:19;;;;;;;;;;;;;;;19.29;42.85;102464.38;5091112;28;19916;-60
2023/05/19 10:45:50;;;;;;;;;;;;;;;19.35;42.38;102463.59;5081579;28;20404;-60
2023/05/19 10:48:17;;;;;;;;;;;;;;;19.44;42.98;102462.50;5085361;28;19912;-60
2023/05/19 10:50:44;;;;;;;;;;;;;;;19.58;41.78;102468.88;5074795;28;19916;-60
2023/05/19 10:53:13;;;;;;;;;;;;;;;19.54;41.40;102458.69;5076052;28;20014;-59
2023/05/19 10:55:46;;;;;;;;;;;;;;;19.55;42.14;102460.34;5075576;28;19915;-60
2023/05/19 10:58:11;;;;;;;;;;;;;;;19.43;41.94;102457.28;5075834;28;20212;-59
2023/05/19 11:00:37;;;;;;;;;;;;;;;19.34;41.63;102456.53;5082307;28;19920;-60
2023/05/19 11:03:12;;;;;;;;;;;;;;;19.47;41.95;102456.72;5071970;28;19926;-60
2023/05/19 11:05:38;;;;;;;;;;;;;;;19.65;42.63;102452.78;5072861;28;19927;-59
2023/05/19 11:08:04;;;;;;;;;;;;;;;19.71;42.18;102452.03;5076767;28;19928;-60
2023/05/19 11:10:30;;;;;;;;;;;;;;;19.71;42.45;102452.88;5073617;28;19913;-60
2023/05/19 11:12:56;;;;;;;;;;;;;;;19.61;42.25;102446.94;5091402;28;19927;-60
2023/05/19 11:15:24;;;;;;;;;;;;;;;19.56;42.18;102453.94;5086584;28;20379;-61
2023/05/19 11:17:49;;;;;;;;;;;;;;;19.57;43.09;102453.72;5073583;28;20047;-60
2023/05/19 11:20:21;;;;;;;;;;;;;;;19.68;43.20;102457.81;5071500;28;20406;-60
2023/05/19 11:22:59;;;;;;;;;;;;;;;19.77;42.81;102465.56;5076525;28;19970;-60
2023/05/19 11:25:40;;;;;;;;;;;;;;;19.91;43.19;102444.97;5073464;28;19916;-59
2023/05/19 11:28:05;;;;;;;;;;;;;;;20.06;42.58;102444.91;5079466;28;20402;-60
2023/05/19 11:30:31;;;;;;;;;;;;;;;20.18;42.33;102453.28;5085865;28;19924;-60
2023/05/19 11:32:56;;;;;;;;;;;;;;;20.25;41.95;102448.81;5077967;28;19959;-59
2023/05/19 11:35:21;;;;;;;;;;;;;;;20.09;41.80;102450.72;5073301;28;20007;-60
2023/05/19 11:37:47;;;;;;;;;;;;;;;20.00;41.16;102446.50;5074683;28;19966;-60
2023/05/19 11:40:14;;;;;;;;;;;;;;;20.07;41.82;102443.88;5073573;28;19916;-60
2023/05/19 11:42:39;;;;;;;;;;;;;;;20.18;41.47;102437.94;5080215;28;19931;-60
2023/05/19 11:45:05;;;;;;;;;;;;;;;20.16;41.17;102440.00;5083706;28;19916;-60
2023/05/19 11:47:31;;;;;;;;;;;;;;;20.02;41.57;102427.44;5081615;28;19965;-60
2023/05/19 11:49:57;;;;;;;;;;;;;;;20.13;41.42;102436.84;5080703;28;20023;-60
2023/05/19 11:52:23;;;;;;;;;;;;;;;20.17;42.01;102424.63;5085282;28;20361;-60
2023/05/19 11:54:48;;;;;;;;;;;;;;;20.10;41.57;102440.78;5071922;28;19920;-60
2023/05/19 11:57:14;;;;;;;;;;;;;;;19.99;40.99;102438.63;5074603;28;20309;-60
2023/05/19 11:59:44;;;;;;;;;;;;;;;19.91;41.03;102434.16;5080113;28;20361;-60
2023/05/19 12:02:20;;;;;;;;;;;;;;;20.00;41.27;102434.91;5086279;28;19912;-60
2023/05/19 12:04:46;;;;;;;;;;;;;;;20.00;40.21;102424.09;5085117;28;19951;-60
2023/05/19 12:07:12;;;;;;;;;;;;;;;19.97;40.54;102419.94;5082303;28;19970;-60
2023/05/19 12:09:37;;;;;;;;;;;;;;;19.85;39.33;102417.94;5081518;28;20361;-60
2023/05/19 12:12:03;;;;;;;;;;;;;;;19.81;40.22;102417.50;5086024;28;20537;-60
2023/05/19 12:14:28;;;;;;;;;;;;;;;19.91;40.58;102419.84;5075314;28;19924;-60
2023/05/19 12:16:54;;;;;;;;;;;;;;;20.05;40.58;102422.50;5079078;28;19916;-59
2023/05/19 12:19:21;;;;;;;;;;;;;;;20.22;40.49;102420.31;5076097;28;19920;-60
2023/05/19 12:21:46;;;;;;;;;;;;;;;20.36;39.78;102421.28;5085429;28;19912;-60
2023/05/19 12:24:12;;;;;;;;;;;;;;;20.47;40.05;102412.66;5085055;28;19986;-61
2023/05/19 12:26:37;;;;;;;;;;;;;;;20.62;39.61;102418.78;5075758;28;19969;-60
2023/05/19 12:29:06;;;;;;;;;;;;;;;20.78;39.23;102416.78;5071301;28;19927;-60
2023/05/19 12:31:31;;;;;;;;;;;;;;;20.86;39.12;102422.03;5075966;28;20007;-60
2023/05/19 12:33:57;;;;;;;;;;;;;;;20.97;38.55;102419.59;5076290;28;20004;-60
2023/05/19 12:36:23;;;;;;;;;;;;;;;21.08;38.45;102412.75;5086451;28;19912;-61